Time;durP1;ratioP1;P1;durP2;ratioP2;P2;SDS_P1;SDS_P2;PMS_P1;PMS_P2;Temp;Humidity;BMP_temperature;BMP_pressure;BME280_temperature;BME280_humidity;BME280_pressure;Samples;Min_cycle;Max_cycle;Signal;HPM_P1;HPM_P2
2021/05/17 00:01:34;;;;;;;2.85;1.85;;;20.10;50.80;;;;;;5071163;28;20033;-52
2021/05/17 00:04:04;;;;;;;10.65;1.85;;;20.10;51.00;;;;;;5071747;28;20061;-53
2021/05/17 00:06:33;;;;;;;7.18;2.10;;;20.20;50.20;;;;;;5071841;28;20021;-57
2021/05/17 00:09:00;;;;;;;13.25;2.08;;;20.30;50.50;;;;;;5059369;28;20116;-54
2021/05/17 00:11:27;;;;;;;8.38;2.05;;;20.40;49.80;;;;;;5071112;28;20049;-54
2021/05/17 00:13:55;;;;;;;5.60;2.22;;;20.60;49.90;;;;;;5071452;28;20033;-56
2021/05/17 00:16:22;;;;;;;3.72;1.63;;;20.60;50.00;;;;;;5071295;28;20115;-51
2021/05/17 00:18:50;;;;;;;4.95;1.73;;;20.70;49.10;;;;;;5071545;28;20103;-54
2021/05/17 00:21:17;;;;;;;5.57;2.35;;;20.80;49.20;;;;;;5071728;28;20035;-58
2021/05/17 00:23:45;;;;;;;4.63;1.80;;;20.80;48.90;;;;;;5070737;28;20060;-55
2021/05/17 00:26:13;;;;;;;6.93;1.85;;;20.90;49.10;;;;;;5071523;28;20031;-54
2021/05/17 00:28:40;;;;;;;4.43;1.92;;;21.00;48.70;;;;;;5071284;28;20025;-55
2021/05/17 00:31:08;;;;;;;5.15;1.48;;;21.00;49.20;;;;;;5070461;28;20142;-55
2021/05/17 00:33:36;;;;;;;5.28;1.80;;;21.20;48.80;;;;;;5071242;28;20025;-45
2021/05/17 00:36:03;;;;;;;7.55;2.28;;;21.20;48.80;;;;;;5070062;28;20036;-51
2021/05/17 00:38:31;;;;;;;4.80;1.85;;;21.30;48.90;;;;;;5070866;28;20036;-48
2021/05/17 00:40:59;;;;;;;2.88;1.45;;;21.40;48.80;;;;;;5071474;28;20092;-47
2021/05/17 00:43:35;;;;;;;5.05;1.88;;;21.40;48.60;;;;;;5071441;28;20029;-54
2021/05/17 00:46:04;;;;;;;3.28;1.10;;;21.50;48.00;;;;;;5070781;28;20092;-51
2021/05/17 00:48:34;;;;;;;5.55;1.52;;;21.60;47.40;;;;;;5071319;28;20103;-53
2021/05/17 00:51:06;;;;;;;2.88;1.50;;;21.70;48.30;;;;;;5071492;28;20203;-56
2021/05/17 00:53:36;;;;;;;3.15;1.33;;;21.70;48.30;;;;;;5071236;28;20395;-49
2021/05/17 00:56:04;;;;;;;7.85;1.90;;;21.70;47.50;;;;;;5071154;28;20123;-58
2021/05/17 00:58:32;;;;;;;2.90;1.60;;;21.70;47.30;;;;;;5071104;28;20040;-57
2021/05/17 01:01:01;;;;;;;3.97;1.40;;;21.80;48.30;;;;;;5070476;28;20021;-54
2021/05/17 01:03:29;;;;;;;9.20;2.38;;;21.90;48.30;;;;;;5070240;28;20020;-50
2021/05/17 01:05:56;;;;;;;4.03;1.50;;;21.90;47.50;;;;;;5070396;28;20021;-51
2021/05/17 01:08:40;;;;;;;8.05;1.42;;;22.10;47.60;;;;;;5070747;28;20032;-52
2021/05/17 01:11:08;;;;;;;3.58;1.40;;;22.20;47.90;;;;;;5070556;28;20055;-54
2021/05/17 01:13:35;;;;;;;3.03;1.42;;;22.20;47.40;;;;;;5069083;28;20024;-49
2021/05/17 01:16:03;;;;;;;9.48;1.55;;;22.20;47.80;;;;;;5070993;28;20028;-51
2021/05/17 01:18:33;;;;;;;10.07;2.08;;;22.30;46.80;;;;;;5070718;28;20109;-48
2021/05/17 01:21:00;;;;;;;7.68;1.52;;;22.40;47.40;;;;;;5071132;28;20021;-51
2021/05/17 01:25:58;;;;;;;6.15;1.70;;;22.60;46.50;;;;;;5074705;28;20367;-51
2021/05/17 01:28:29;;;;;;;6.97;1.98;;;22.70;46.80;;;;;;5074348;28;20028;-54
2021/05/17 01:31:05;;;;;;;5.25;2.00;;;22.60;47.00;;;;;;5072369;28;20158;-54
2021/05/17 01:33:34;;;;;;;14.23;1.92;;;22.70;47.00;;;;;;5074680;28;20029;-49
2021/05/17 01:36:03;;;;;;;5.00;1.63;;;22.80;45.70;;;;;;5062283;28;20041;-52
2021/05/17 01:38:31;;;;;;;3.25;1.38;;;22.70;47.10;;;;;;5074407;28;20379;-55
2021/05/17 01:40:59;;;;;;;2.80;1.35;;;22.80;46.60;;;;;;5074480;28;20025;-54
2021/05/17 01:43:26;;;;;;;4.25;1.50;;;22.90;47.00;;;;;;5074318;28;20021;-54
2021/05/17 01:45:54;;;;;;;5.50;1.52;;;23.00;46.80;;;;;;5073914;28;20048;-55
2021/05/17 01:48:25;;;;;;;7.45;1.77;;;23.00;46.10;;;;;;5073907;28;20023;-54
2021/05/17 01:50:53;;;;;;;13.80;2.00;;;23.00;46.70;;;;;;5073983;28;20032;-58
2021/05/17 01:53:20;;;;;;;3.95;1.50;;;23.10;46.20;;;;;;5073810;28;20424;-51
2021/05/17 01:55:49;;;;;;;9.05;1.70;;;23.10;47.00;;;;;;5073694;28;20127;-57
2021/05/17 01:58:24;;;;;;;5.30;1.30;;;23.20;45.80;;;;;;5073969;28;20032;-53
2021/05/17 02:00:51;;;;;;;6.45;1.45;;;23.20;46.20;;;;;;5073402;28;20487;-56
2021/05/17 02:03:19;;;;;;;2.28;1.27;;;23.20;46.80;;;;;;5072584;28;20044;-52
2021/05/17 02:05:47;;;;;;;4.07;1.33;;;23.30;46.60;;;;;;5073652;28;20120;-56
2021/05/17 02:08:18;;;;;;;9.60;1.85;;;23.40;46.50;;;;;;5073505;28;20036;-55
2021/05/17 02:10:46;;;;;;;5.10;1.55;;;23.40;46.30;;;;;;5073181;28;20040;-54
2021/05/17 02:13:24;;;;;;;3.75;1.50;;;23.40;46.40;;;;;;5071239;28;20475;-49
2021/05/17 02:15:53;;;;;;;5.50;2.10;;;23.40;45.80;;;;;;5070672;28;20403;-41
2021/05/17 02:18:21;;;;;;;3.45;1.27;;;23.40;44.40;;;;;;5073884;28;20036;-46
2021/05/17 02:20:49;;;;;;;5.25;1.33;;;23.30;44.50;;;;;;5073642;28;20047;-39
2021/05/17 02:23:18;;;;;;;6.18;1.38;;;23.20;45.70;;;;;;5073723;28;20487;-41
2021/05/17 02:25:48;;;;;;;8.95;1.48;;;23.10;44.50;;;;;;5073164;28;20032;-41
2021/05/17 02:28:16;;;;;;;10.43;1.67;;;23.00;44.90;;;;;;5073893;28;20031;-50
2021/05/17 02:30:44;;;;;;;8.95;1.60;;;23.10;45.60;;;;;;5073345;28;20036;-42
2021/05/17 02:33:13;;;;;;;5.10;1.20;;;23.20;46.20;;;;;;5072897;28;20025;-41
2021/05/17 02:35:41;;;;;;;6.57;1.02;;;23.10;45.40;;;;;;5072809;28;20060;-41
2021/05/17 02:38:09;;;;;;;15.30;2.97;;;23.20;45.10;;;;;;5072738;28;20037;-47
2021/05/17 02:40:37;;;;;;;3.15;1.20;;;22.80;45.00;;;;;;5073363;28;20119;-44
2021/05/17 02:43:08;;;;;;;8.93;2.47;;;22.50;45.60;;;;;;5073132;28;20020;-54
2021/05/17 02:45:36;;;;;;;8.27;3.20;;;22.30;46.70;;;;;;5073096;28;20469;-51
2021/05/17 02:48:06;;;;;;;7.93;2.63;;;22.00;47.20;;;;;;5062964;28;20043;-49
2021/05/17 02:50:33;;;;;;;9.60;3.05;;;21.90;48.80;;;;;;5070930;28;20020;-49
2021/05/17 02:53:02;;;;;;;5.88;3.08;;;21.70;49.30;;;;;;5069439;28;20115;-50
2021/05/17 02:55:33;;;;;;;8.13;3.75;;;21.60;48.50;;;;;;5071622;28;20374;-48
2021/05/17 02:58:06;;;;;;;6.32;3.15;;;21.50;50.10;;;;;;5071208;28;20198;-45
2021/05/17 03:00:36;;;;;;;6.40;4.15;;;21.40;49.40;;;;;;5070071;28;20062;-48
2021/05/17 03:03:11;;;;;;;7.75;3.63;;;21.30;49.70;;;;;;5068522;28;20028;-50
2021/05/17 03:05:41;;;;;;;10.23;4.65;;;21.30;50.40;;;;;;5070542;28;20033;-52
2021/05/17 03:08:13;;;;;;;6.28;4.03;;;21.20;50.20;;;;;;5072338;28;20494;-49
2021/05/17 03:10:43;;;;;;;6.90;4.38;;;21.30;51.10;;;;;;5071293;28;20056;-49
2021/05/17 03:13:17;;;;;;;7.07;4.82;;;21.40;51.50;;;;;;5067344;28;20038;-50
2021/05/17 03:15:46;;;;;;;7.82;5.53;;;21.60;52.00;;;;;;5070856;28;20024;-47
2021/05/17 03:18:14;;;;;;;10.18;4.43;;;21.70;51.50;;;;;;5069385;28;20044;-49
2021/05/17 03:20:42;;;;;;;7.57;6.20;;;21.90;49.40;;;;;;5071402;28;20047;-46
2021/05/17 03:23:12;;;;;;;7.95;5.00;;;22.10;50.80;;;;;;5065598;28;20837;-57
2021/05/17 03:25:44;;;;;;;10.07;6.47;;;22.30;50.20;;;;;;5070782;28;20198;-52
2021/05/17 03:28:11;;;;;;;5.75;4.40;;;22.50;49.80;;;;;;5070873;28;20378;-50
2021/05/17 03:30:39;;;;;;;6.78;4.93;;;22.70;48.90;;;;;;5071102;28;20385;-47
2021/05/17 03:33:06;;;;;;;8.05;4.53;;;22.80;48.80;;;;;;5067529;28;20536;-53
2021/05/17 03:35:34;;;;;;;16.95;15.35;;;22.90;49.10;;;;;;5068578;28;20112;-50
2021/05/17 03:38:01;;;;;;;11.85;6.03;;;22.90;48.10;;;;;;5070719;28;20059;-56
2021/05/17 03:40:28;;;;;;;6.38;4.05;;;23.00;47.70;;;;;;5071384;28;20025;-49
2021/05/17 03:42:56;;;;;;;13.40;5.60;;;23.00;48.20;;;;;;5072118;28;20479;-54
2021/05/17 03:45:23;;;;;;;7.32;4.70;;;23.00;47.70;;;;;;5068577;28;20044;-49
2021/05/17 03:47:50;;;;;;;5.80;4.93;;;23.10;49.20;;;;;;5069949;28;20478;-53
2021/05/17 03:50:17;;;;;;;9.90;6.72;;;23.20;47.40;;;;;;5070711;28;20033;-48
2021/05/17 03:52:45;;;;;;;8.55;6.63;;;23.30;49.10;;;;;;5070446;28;20374;-50
2021/05/17 03:55:12;;;;;;;7.63;4.65;;;23.50;48.30;;;;;;5065874;28;20047;-50
2021/05/17 03:57:40;;;;;;;6.30;5.00;;;23.70;48.50;;;;;;5069683;28;20044;-49
2021/05/17 04:00:09;;;;;;;13.82;4.68;;;23.70;47.00;;;;;;5070558;28;20151;-46
2021/05/17 04:02:38;;;;;;;6.07;4.50;;;23.70;46.90;;;;;;5071004;28;20506;-50
2021/05/17 04:07:56;;;;;;;9.70;4.47;;;23.90;47.40;;;;;;5069749;28;20028;-50
2021/05/17 04:13:23;;;;;;;8.43;3.90;;;24.00;47.40;;;;;;5064116;28;20391;-48
2021/05/17 04:15:53;;;;;;;21.20;7.40;;;24.10;46.30;;;;;;5068375;28;20159;-52
2021/05/17 04:18:21;;;;;;;18.10;6.93;;;24.00;47.90;;;;;;5067828;28;20513;-49
2021/05/17 04:20:51;;;;;;;23.80;8.20;;;24.00;47.30;;;;;;5070530;28;20070;-54
2021/05/17 04:23:23;;;;;;;21.42;7.55;;;24.00;47.00;;;;;;5065595;28;20131;-46
2021/05/17 04:25:51;;;;;;;30.13;9.77;;;23.90;48.10;;;;;;5070430;28;20021;-54
2021/05/17 04:28:19;;;;;;;26.80;8.93;;;23.90;48.90;;;;;;5069030;28;20044;-52
2021/05/17 04:30:47;;;;;;;22.25;8.13;;;23.90;49.00;;;;;;5068726;28;20112;-49
2021/05/17 04:33:14;;;;;;;25.45;8.05;;;23.80;48.80;;;;;;5065044;28;20118;-52
2021/05/17 04:35:42;;;;;;;24.90;9.02;;;23.60;48.70;;;;;;5070069;28;20047;-53
2021/05/17 04:38:09;;;;;;;28.80;7.95;;;23.50;49.00;;;;;;5069280;28;20039;-46
2021/05/17 04:40:36;;;;;;;21.35;7.80;;;23.40;49.00;;;;;;5070104;28;20028;-53
2021/05/17 04:43:04;;;;;;;19.15;7.78;;;23.30;48.40;;;;;;5070425;28;20083;-48
2021/05/17 04:45:31;;;;;;;17.92;6.53;;;23.10;49.80;;;;;;5069628;28;20017;-47
2021/05/17 04:47:59;;;;;;;25.63;8.18;;;22.90;50.50;;;;;;5068156;28;20572;-48
2021/05/17 04:50:26;;;;;;;16.35;7.30;;;22.90;51.40;;;;;;5068727;28;20052;-47
2021/05/17 04:52:54;;;;;;;20.52;8.13;;;22.90;51.30;;;;;;5067626;28;20033;-48
2021/05/17 04:55:21;;;;;;;17.05;6.50;;;22.90;51.10;;;;;;5067486;28;20542;-47
2021/05/17 04:57:48;;;;;;;18.38;6.38;;;23.00;51.00;;;;;;5071443;28;20055;-54
2021/05/17 05:00:16;;;;;;;25.33;8.48;;;23.00;50.50;;;;;;5073991;28;20062;-49
2021/05/17 05:02:45;;;;;;;23.35;8.48;;;22.90;51.20;;;;;;5074378;28;20479;-52
2021/05/17 05:05:13;;;;;;;16.58;7.35;;;22.70;51.50;;;;;;5074642;28;20037;-51
2021/05/17 05:07:40;;;;;;;19.83;7.10;;;22.40;51.90;;;;;;5074083;28;20024;-52
2021/05/17 05:10:08;;;;;;;21.25;6.65;;;22.30;53.40;;;;;;5074037;28;20037;-55
2021/05/17 05:12:35;;;;;;;20.67;6.22;;;22.30;52.90;;;;;;5074832;28;20519;-55
2021/05/17 05:15:04;;;;;;;27.85;8.48;;;22.40;53.00;;;;;;5071242;28;20086;-53
2021/05/17 05:17:31;;;;;;;17.08;6.20;;;22.50;52.10;;;;;;5071923;28;20032;-54
2021/05/17 05:19:59;;;;;;;20.50;8.15;;;22.60;52.70;;;;;;5072241;28;20475;-56
2021/05/17 05:22:26;;;;;;;18.77;6.68;;;22.80;52.70;;;;;;5072294;28;20107;-50
2021/05/17 05:24:56;;;;;;;19.05;5.85;;;22.80;51.90;;;;;;5072140;28;20062;-53
2021/05/17 05:27:31;;;;;;;12.13;4.93;;;22.70;51.60;;;;;;5071609;28;20027;-55
2021/05/17 05:30:14;;;;;;;15.77;6.03;;;22.70;51.30;;;;;;5071269;28;20047;-52
2021/05/17 05:32:49;;;;;;;;;;;22.70;52.60;;;;;;5074411;28;20032;-51
2021/05/17 05:35:17;;;;;;;19.33;7.10;;;22.70;52.20;;;;;;5074053;28;19915;-51
2021/05/17 05:37:44;;;;;;;14.27;6.10;;;22.50;51.70;;;;;;5073657;28;20028;-51
2021/05/17 05:40:12;;;;;;;15.18;6.13;;;22.30;51.20;;;;;;5072438;28;20017;-54
2021/05/17 05:42:40;;;;;;;12.68;4.88;;;22.10;52.30;;;;;;5073756;28;20492;-51
2021/05/17 05:45:11;;;;;;;16.85;6.35;;;22.00;52.90;;;;;;5061921;28;20106;-47
2021/05/17 05:47:38;;;;;;;10.43;5.07;;;21.90;52.60;;;;;;5073951;28;20028;-49
2021/05/17 05:50:06;;;;;;;14.75;5.63;;;21.70;52.60;;;;;;5074459;28;20056;-54
2021/05/17 05:52:34;;;;;;;12.75;5.38;;;21.60;53.30;;;;;;5073565;28;20090;-54
2021/05/17 05:55:04;;;;;;;17.67;5.32;;;21.40;53.60;;;;;;5067578;28;20082;-48
2021/05/17 05:57:44;;;;;;;16.52;6.22;;;21.30;53.60;;;;;;5071710;28;20119;-48
2021/05/17 06:00:17;;;;;;;8.85;3.90;;;21.20;53.50;;;;;;5074395;28;20435;-56
2021/05/17 06:02:45;;;;;;;12.63;5.35;;;21.10;53.40;;;;;;5071875;28;20114;-49
2021/05/17 06:05:13;;;;;;;12.15;5.13;;;20.90;54.80;;;;;;5071501;28;20495;-54
2021/05/17 06:07:40;;;;;;;10.65;5.38;;;20.70;55.80;;;;;;5066123;28;20050;-55
2021/05/17 06:10:10;;;;;;;13.43;5.70;;;20.70;56.00;;;;;;5072155;28;20118;-51
2021/05/17 06:12:39;;;;;;;12.23;4.60;;;20.60;56.30;;;;;;5073178;28;20028;-49
2021/05/17 06:15:08;;;;;;;13.75;4.70;;;20.60;56.00;;;;;;5070673;28;20414;-52
2021/05/17 06:17:35;;;;;;;11.63;4.28;;;20.50;55.70;;;;;;5066891;28;20048;-49
2021/05/17 06:20:05;;;;;;;12.73;4.93;;;20.30;56.80;;;;;;5072939;28;20574;-52
2021/05/17 06:22:36;;;;;;;12.75;5.10;;;20.30;57.30;;;;;;5071438;28;20477;-51
2021/05/17 06:25:06;;;;;;;13.88;4.88;;;20.20;57.40;;;;;;5071468;28;20068;-48
2021/05/17 06:27:34;;;;;;;11.27;4.22;;;20.20;57.50;;;;;;5067937;28;20142;-48
2021/05/17 06:30:03;;;;;;;10.25;4.68;;;20.10;57.60;;;;;;5072192;28;20029;-52
2021/05/17 06:32:34;;;;;;;12.48;4.38;;;20.10;58.00;;;;;;5071829;28;20204;-54
2021/05/17 06:35:03;;;;;;;12.88;4.82;;;20.00;57.80;;;;;;5071554;28;20044;-53
2021/05/17 06:37:30;;;;;;;8.60;3.97;;;20.00;58.00;;;;;;5067773;28;20032;-52
2021/05/17 06:39:58;;;;;;;14.05;5.00;;;19.90;57.80;;;;;;5072491;28;20043;-51
2021/05/17 06:42:25;;;;;;;12.68;4.60;;;19.90;58.60;;;;;;5072498;28;20025;-51
2021/05/17 06:44:53;;;;;;;13.10;4.10;;;19.80;58.20;;;;;;5071191;28;20146;-50
2021/05/17 06:47:21;;;;;;;6.40;3.38;;;19.80;58.60;;;;;;5067899;28;20024;-54
2021/05/17 06:49:49;;;;;;;9.18;3.88;;;19.70;59.00;;;;;;5072966;28;20123;-56
2021/05/17 06:52:21;;;;;;;6.65;3.38;;;19.70;58.80;;;;;;5071821;28;20016;-54
2021/05/17 06:54:50;;;;;;;10.45;4.28;;;19.70;59.00;;;;;;5072560;28;20039;-51
2021/05/17 06:57:22;;;;;;;10.98;3.75;;;19.60;58.90;;;;;;5054198;28;20041;-52
2021/05/17 06:59:55;;;;;;;8.32;4.03;;;19.50;58.90;;;;;;5056193;28;20044;-55
2021/05/17 07:02:24;;;;;;;7.90;3.30;;;19.50;59.30;;;;;;5071886;28;20119;-48
2021/05/17 07:04:52;;;;;;;7.93;3.47;;;19.50;59.30;;;;;;5071661;28;20028;-52
2021/05/17 07:07:25;;;;;;;9.05;3.20;;;19.50;59.50;;;;;;5071952;28;20025;-55
2021/05/17 07:12:38;;;;;;;9.93;3.33;;;19.40;59.80;;;;;;5071602;28;20056;-58
2021/05/17 07:15:06;;;;;;;10.68;3.85;;;19.40;59.20;;;;;;5072348;28;20108;-49
2021/05/17 07:17:33;;;;;;;11.32;3.75;;;19.30;59.80;;;;;;5072245;28;20097;-54
2021/05/17 07:20:01;;;;;;;10.55;3.78;;;19.30;59.90;;;;;;5070393;28;20123;-51
2021/05/17 07:25:16;;;;;;;9.18;3.17;;;19.30;59.80;;;;;;5072120;28;20102;-56
2021/05/17 07:27:43;;;;;;;10.90;3.40;;;19.20;59.80;;;;;;5071364;28;20027;-51
2021/05/17 07:30:11;;;;;;;15.43;3.67;;;19.30;60.20;;;;;;5072070;28;20035;-58
2021/05/17 07:32:38;;;;;;;14.95;3.42;;;19.20;60.00;;;;;;5071500;28;20025;-49
2021/05/17 07:35:09;;;;;;;8.45;3.30;;;19.20;60.40;;;;;;5071276;28;20032;-57
2021/05/17 07:37:37;;;;;;;6.40;3.10;;;19.20;60.40;;;;;;5070532;28;20475;-53
2021/05/17 07:40:05;;;;;;;9.38;3.33;;;19.20;61.00;;;;;;5071235;28;20064;-58
2021/05/17 07:42:33;;;;;;;5.68;2.60;;;19.10;61.10;;;;;;5071708;28;20086;-54
2021/05/17 07:45:00;;;;;;;10.65;2.67;;;19.10;61.00;;;;;;5071690;28;20073;-53
2021/05/17 07:47:28;;;;;;;17.98;3.55;;;19.10;60.50;;;;;;5069602;28;20075;-55
2021/05/17 07:49:55;;;;;;;10.20;2.97;;;19.10;60.90;;;;;;5071674;28;20074;-54
2021/05/17 07:52:23;;;;;;;9.23;3.05;;;19.10;61.10;;;;;;5071314;28;20021;-54
2021/05/17 07:54:52;;;;;;;5.13;2.30;;;19.10;61.20;;;;;;5071522;28;20376;-57
2021/05/17 07:57:20;;;;;;;10.32;3.85;;;19.10;60.90;;;;;;5068411;28;20448;-54
2021/05/17 07:59:47;;;;;;;5.15;2.10;;;19.00;61.00;;;;;;5069141;28;20055;-52
2021/05/17 08:02:21;;;;;;;6.75;2.75;;;19.00;61.40;;;;;;5071646;28;20028;-52
2021/05/17 08:04:52;;;;;;;19.70;4.30;;;19.00;61.50;;;;;;5056469;28;20482;-48
2021/05/17 08:07:21;;;;;;;8.13;3.35;;;18.90;59.10;;;;;;5070193;28;20121;-54
2021/05/17 08:09:50;;;;;;;11.77;3.50;;;18.70;60.60;;;;;;5070677;28;20044;-58
2021/05/17 08:12:17;;;;;;;10.18;2.95;;;18.60;59.80;;;;;;5061559;28;20040;-58
2021/05/17 08:14:45;;;;;;;6.32;2.17;;;18.70;60.90;;;;;;5071594;28;20127;-57
2021/05/17 08:17:12;;;;;;;10.15;3.65;;;18.50;59.60;;;;;;5071737;28;20071;-55
2021/05/17 08:19:40;;;;;;;10.80;4.00;;;18.40;60.70;;;;;;5071648;28;20096;-59
2021/05/17 08:22:07;;;;;;;8.57;2.75;;;18.40;62.20;;;;;;5071488;28;20074;-55
2021/05/17 08:24:35;;;;;;;8.35;3.42;;;18.30;61.50;;;;;;5070071;28;20090;-53
2021/05/17 08:27:05;;;;;;;11.45;4.60;;;18.30;60.50;;;;;;5071494;28;20056;-59
2021/05/17 08:29:34;;;;;;;8.15;5.05;;;18.50;63.30;;;;;;5071896;28;20101;-50
2021/05/17 08:32:03;;;;;;;6.70;4.35;;;18.60;62.90;;;;;;5070296;28;20025;-52
2021/05/17 08:34:31;;;;;;;35.58;6.85;;;18.60;61.30;;;;;;5070686;28;20031;-51
2021/05/17 08:37:00;;;;;;;8.93;4.70;;;18.60;60.20;;;;;;5070892;28;20103;-51
2021/05/17 08:39:28;;;;;;;12.75;3.92;;;18.70;62.10;;;;;;5071212;28;20367;-57
2021/05/17 08:41:57;;;;;;;7.20;4.53;;;18.70;59.00;;;;;;5071423;28;20409;-53
2021/05/17 08:44:27;;;;;;;13.18;8.77;;;18.70;61.30;;;;;;5061799;28;20036;-55
2021/05/17 08:46:54;;;;;;;11.05;8.90;;;18.80;61.80;;;;;;5069722;28;20028;-53
2021/05/17 08:49:22;;;;;;;13.15;7.80;;;18.80;61.30;;;;;;5065299;28;20027;-52
2021/05/17 08:51:50;;;;;;;15.18;8.30;;;18.90;61.80;;;;;;5066023;28;20040;-54
2021/05/17 08:54:17;;;;;;;16.98;7.28;;;18.90;61.80;;;;;;5067506;28;20517;-48
2021/05/17 08:56:47;;;;;;;10.68;6.30;;;18.90;62.10;;;;;;5064979;28;20029;-52
2021/05/17 08:59:16;;;;;;;18.50;7.38;;;19.00;61.80;;;;;;5067408;28;20089;-51
2021/05/17 09:01:44;;;;;;;18.08;6.55;;;19.00;63.40;;;;;;5071267;28;20028;-54
2021/05/17 09:04:14;;;;;;;30.25;7.03;;;19.00;63.00;;;;;;5070686;28;20541;-56
2021/05/17 09:06:42;;;;;;;14.35;6.22;;;18.90;64.00;;;;;;5071136;28;20375;-51
2021/05/17 09:09:23;;;;;;;9.07;5.15;;;18.90;63.50;;;;;;5071084;28;20028;-57
2021/05/17 09:11:52;;;;;;;13.57;5.90;;;18.90;63.10;;;;;;5070670;28;20477;-57
2021/05/17 09:14:20;;;;;;;9.75;4.93;;;19.00;65.90;;;;;;5070707;28;20422;-53
2021/05/17 09:16:56;;;;;;;11.43;5.60;;;19.00;64.70;;;;;;5061609;28;20032;-51
2021/05/17 09:19:26;;;;;;;10.98;4.35;;;18.90;61.80;;;;;;5068515;28;20028;-52
2021/05/17 09:22:05;;;;;;;12.38;4.25;;;18.90;61.70;;;;;;5069876;28;20032;-47
2021/05/17 09:24:46;;;;;;;17.73;5.70;;;19.00;62.30;;;;;;5064921;28;20035;-52
2021/05/17 09:27:19;;;;;;;20.38;4.80;;;18.90;62.50;;;;;;5062055;28;20112;-55
2021/05/17 09:29:55;;;;;;;17.85;4.57;;;18.90;61.50;;;;;;5070700;28;20024;-51
2021/05/17 09:32:25;;;;;;;16.00;4.47;;;18.90;61.00;;;;;;5068098;28;20040;-53
2021/05/17 09:35:02;;;;;;;17.23;4.20;;;18.90;61.10;;;;;;5072177;28;20029;-53
2021/05/17 09:37:56;;;;;;;20.60;4.65;;;18.90;60.70;;;;;;5062630;28;20021;-57
2021/05/17 09:40:32;;;;;;;15.02;4.00;;;18.90;61.50;;;;;;5067707;28;20091;-57
2021/05/17 09:43:05;;;;;;;20.63;4.47;;;18.90;60.30;;;;;;5069011;28;20108;-47
2021/05/17 09:45:37;;;;;;;19.67;3.88;;;18.90;59.40;;;;;;5067326;28;20017;-50
2021/05/17 09:48:21;;;;;;;29.63;5.25;;;18.90;60.40;;;;;;5066580;28;20135;-51
2021/05/17 09:50:59;;;;;;;12.50;3.78;;;18.90;61.30;;;;;;5072682;28;20108;-55
2021/05/17 09:53:30;;;;;;;15.60;3.70;;;18.90;60.60;;;;;;5073679;28;20486;-53
2021/05/17 09:55:58;;;;;;;16.08;4.05;;;19.00;62.20;;;;;;5073114;28;20024;-56
2021/05/17 09:58:33;;;;;;;15.43;4.00;;;18.90;61.70;;;;;;5067517;28;20047;-52
2021/05/17 10:01:09;;;;;;;25.00;16.88;;;18.90;61.50;;;;;;5073176;28;20111;-52
2021/05/17 10:03:47;;;;;;;17.20;9.85;;;18.90;63.40;;;;;;5069394;28;20081;-52
2021/05/17 10:06:25;;;;;;;26.20;12.57;;;19.00;62.60;;;;;;5069706;28;20025;-49
2021/05/17 10:08:54;;;;;;;24.35;9.68;;;18.90;61.70;;;;;;5066840;28;20024;-47
2021/05/17 10:11:24;;;;;;;15.07;6.45;;;18.90;64.00;;;;;;5072090;28;20040;-52
2021/05/17 10:13:52;;;;;;;16.88;10.65;;;18.90;63.00;;;;;;5070483;28;20054;-49
2021/05/17 10:16:21;;;;;;;27.33;15.43;;;18.90;66.20;;;;;;5071687;28;20025;-50
2021/05/17 10:18:50;;;;;;;30.67;21.83;;;18.90;64.20;;;;;;5070701;28;20028;-53
2021/05/17 10:21:21;;;;;;;29.10;25.95;;;18.90;65.20;;;;;;5072689;28;20029;-53
2021/05/17 10:23:49;;;;;;;24.17;11.15;;;18.90;64.80;;;;;;5069535;28;20025;-53
2021/05/17 10:26:20;;;;;;;14.68;10.15;;;18.80;62.60;;;;;;5072782;28;20053;-46
2021/05/17 10:29:06;;;;;;;25.95;20.38;;;18.80;64.20;;;;;;5071329;28;20485;-49
2021/05/17 10:31:34;;;;;;;25.98;22.27;;;18.80;62.80;;;;;;5071979;28;20108;-50
2021/05/17 10:34:06;;;;;;;21.25;13.63;;;18.80;61.60;;;;;;5072866;28;20031;-47
2021/05/17 10:36:59;;;;;;;26.50;23.27;;;18.80;61.00;;;;;;5071223;28;20172;-52
2021/05/17 10:39:38;;;;;;;48.10;8.13;;;18.70;61.20;;;;;;5070408;28;20394;-56
2021/05/17 10:48:22;;;;;;;14.15;8.80;;;18.70;60.40;;;;;;5069341;28;20078;-51
2021/05/17 10:51:14;;;;;;;17.95;12.00;;;18.60;59.50;;;;;;5072953;28;20489;-49
2021/05/17 10:53:56;;;;;;;9.77;6.03;;;18.60;58.80;;;;;;5073900;28;20025;-54
2021/05/17 10:57:02;;;;;;;8.35;4.53;;;18.50;57.50;;;;;;5068686;28;20020;-53
2021/05/17 11:02:34;;;;;;;7.63;4.20;;;18.50;58.20;;;;;;5069534;28;20028;-55
2021/05/17 11:05:10;;;;;;;8.32;3.63;;;18.40;58.10;;;;;;5069219;28;20082;-55
2021/05/17 11:07:54;;;;;;;7.65;4.43;;;18.30;58.80;;;;;;5071271;28;20028;-58
2021/05/17 11:10:26;;;;;;;6.45;4.03;;;18.30;59.90;;;;;;5070302;28;20040;-55
2021/05/17 11:12:59;;;;;;;12.68;4.32;;;18.30;60.50;;;;;;5069345;28;20032;-59
2021/05/17 11:15:53;;;;;;;13.13;4.95;;;18.30;60.90;;;;;;5076092;28;20025;-61
2021/05/17 11:18:29;;;;;;;9.48;4.43;;;18.30;60.80;;;;;;5072065;28;20043;-58
2021/05/17 11:20:59;;;;;;;8.52;3.90;;;18.30;61.00;;;;;;5070801;28;20052;-60
2021/05/17 11:23:32;;;;;;;6.60;3.45;;;18.30;60.80;;;;;;5072159;28;20020;-57
2021/05/17 11:26:03;;;;;;;5.43;3.60;;;18.30;60.90;;;;;;5072098;28;20071;-53
2021/05/17 11:28:37;;;;;;;5.80;3.80;;;18.20;61.10;;;;;;5072144;28;20028;-54
2021/05/17 11:31:29;;;;;;;7.18;4.00;;;18.30;61.10;;;;;;5067062;28;20028;-60
2021/05/17 11:34:02;;;;;;;4.13;3.27;;;18.20;61.10;;;;;;5071056;28;20021;-52
2021/05/17 11:36:43;;;;;;;7.50;3.88;;;18.20;61.30;;;;;;5071624;28;20036;-54
2021/05/17 11:39:10;;;;;;;5.03;3.30;;;18.20;61.40;;;;;;5068227;28;20045;-59
2021/05/17 11:41:47;;;;;;;9.23;3.72;;;18.10;61.30;;;;;;5068308;28;20093;-58
2021/05/17 11:44:58;;;;;;;8.13;3.55;;;18.10;61.40;;;;;;5067821;28;20428;-54
2021/05/17 11:47:34;;;;;;;5.57;3.38;;;18.10;61.40;;;;;;5069037;28;20089;-54
2021/05/17 11:50:04;;;;;;;8.93;3.30;;;18.10;61.50;;;;;;5069124;28;20024;-58
2021/05/17 11:52:36;;;;;;;7.15;2.88;;;18.10;61.70;;;;;;5065216;28;20029;-61
2021/05/17 11:55:08;;;;;;;7.75;4.07;;;18.00;61.60;;;;;;5069782;28;20026;-58
2021/05/17 11:57:40;;;;;;;6.72;2.83;;;18.00;61.00;;;;;;5069303;28;20481;-58
2021/05/17 12:00:17;;;;;;;7.43;3.10;;;18.00;61.60;;;;;;5068570;28;20481;-55
2021/05/17 12:02:52;;;;;;;3.42;2.88;;;18.00;61.60;;;;;;5063791;28;20074;-56
2021/05/17 12:05:23;;;;;;;6.95;3.17;;;18.00;61.30;;;;;;5065854;28;20082;-59
2021/05/17 12:07:53;;;;;;;4.57;2.70;;;17.90;61.60;;;;;;5066690;28;20032;-54
2021/05/17 12:10:21;;;;;;;4.03;3.10;;;17.90;61.60;;;;;;5069542;28;20049;-50
2021/05/17 12:12:52;;;;;;;5.03;2.67;;;17.90;61.70;;;;;;5065236;28;20059;-52
2021/05/17 12:15:20;;;;;;;4.88;2.80;;;17.90;61.50;;;;;;5065907;28;20016;-59
2021/05/17 12:17:48;;;;;;;5.18;2.75;;;17.90;61.70;;;;;;5069932;28;20041;-60
2021/05/17 12:20:18;;;;;;;4.10;2.65;;;17.90;61.60;;;;;;5068985;28;20051;-61
2021/05/17 12:22:47;;;;;;;6.80;2.60;;;17.90;61.60;;;;;;5066455;28;20052;-52
2021/05/17 12:25:17;;;;;;;5.40;2.97;;;17.90;61.80;;;;;;5069525;28;20103;-54
2021/05/17 12:27:46;;;;;;;4.43;2.60;;;17.90;61.60;;;;;;5069094;28;20445;-55
2021/05/17 12:30:36;;;;;;;4.40;2.58;;;17.90;61.70;;;;;;5069717;28;20020;-49
2021/05/17 12:33:04;;;;;;;4.97;2.83;;;17.80;61.70;;;;;;5064239;28;20494;-51
2021/05/17 12:35:31;;;;;;;3.72;2.25;;;17.80;61.50;;;;;;5065637;28;20185;-54
2021/05/17 12:38:04;;;;;;;2.40;2.17;;;17.80;61.60;;;;;;5069471;28;20036;-59
2021/05/17 12:40:40;;;;;;;3.03;2.17;;;17.80;61.80;;;;;;5068794;28;20025;-56
2021/05/17 12:43:18;;;;;;;6.13;2.50;;;17.70;61.80;;;;;;5067234;28;20032;-51
2021/05/17 12:46:00;;;;;;;5.05;2.97;;;17.70;61.90;;;;;;5067364;28;20032;-54
2021/05/17 12:48:40;;;;;;;3.90;2.13;;;17.70;62.00;;;;;;5067391;28;20493;-59
2021/05/17 12:51:17;;;;;;;4.63;2.28;;;17.70;62.00;;;;;;5067367;28;20276;-54
2021/05/17 12:53:45;;;;;;;4.53;2.70;;;17.60;61.90;;;;;;5066966;28;20482;-53
2021/05/17 12:56:27;;;;;;;4.38;2.22;;;17.60;62.10;;;;;;5069620;28;20068;-49
2021/05/17 12:58:55;;;;;;;5.38;2.45;;;17.60;62.70;;;;;;5068902;28;20041;-58
2021/05/17 13:01:24;;;;;;;4.03;2.60;;;17.50;62.00;;;;;;5066591;28;20537;-56
2021/05/17 13:03:54;;;;;;;4.10;2.47;;;17.50;62.10;;;;;;5069518;28;20033;-65
2021/05/17 13:06:29;;;;;;;3.35;2.20;;;17.50;61.90;;;;;;5068925;28;20066;-58
2021/05/17 13:09:04;;;;;;;2.60;2.22;;;17.50;62.00;;;;;;5069425;28;20056;-55
2021/05/17 13:11:43;;;;;;;3.70;1.90;;;17.50;62.10;;;;;;5065928;28;20530;-58
2021/05/17 13:14:18;;;;;;;3.08;1.83;;;17.50;62.20;;;;;;5069367;28;20023;-55
2021/05/17 13:16:54;;;;;;;2.83;2.00;;;17.40;62.00;;;;;;5066367;28;20029;-57
2021/05/17 13:19:59;;;;;;;2.08;1.52;;;17.40;62.20;;;;;;5072164;28;20043;-54
2021/05/17 13:22:54;;;;;;;4.63;2.47;;;17.40;62.20;;;;;;5067514;28;20074;-52
2021/05/17 13:33:34;;;;;;;2.70;1.75;;;17.30;62.40;;;;;;5070537;28;20025;-55